createdAt,value
2023-03-29T00:01:06.716Z,101952.03
2023-03-29T00:04:16.079Z,101948.75
2023-03-29T00:07:23.774Z,101959.53
2023-03-29T00:10:28.889Z,101954.44
2023-03-29T00:13:34.010Z,101957.00
2023-03-29T00:16:39.347Z,101958.00
2023-03-29T00:19:47.334Z,101955.00
2023-03-29T00:22:52.443Z,101960.44
2023-03-29T00:25:57.850Z,101950.16
2023-03-29T00:29:03.007Z,101952.44
2023-03-29T00:32:08.433Z,101956.97
2023-03-29T00:35:15.221Z,101959.97
2023-03-29T00:38:20.702Z,101959.72
2023-03-29T00:41:26.155Z,101965.28
2023-03-29T00:44:54.873Z,101971.94
2023-03-29T00:48:02.809Z,101961.16
2023-03-29T00:51:11.385Z,101965.38
2023-03-29T00:54:19.757Z,101962.78
2023-03-29T00:57:27.721Z,101951.38
2023-03-29T01:00:36.825Z,101968.84
2023-03-29T01:03:46.912Z,101959.84
2023-03-29T01:06:57.817Z,101962.03
2023-03-29T01:10:09.210Z,101960.69
2023-03-29T01:13:17.020Z,101954.16
2023-03-29T01:16:23.310Z,101939.00
2023-03-29T01:19:34.252Z,101948.44
2023-03-29T01:22:51.464Z,101959.88
2023-03-29T01:26:03.007Z,101963.63
2023-03-29T01:29:11.397Z,101968.75
2023-03-29T01:32:19.966Z,101950.34
2023-03-29T01:35:28.692Z,101956.19
2023-03-29T01:38:38.225Z,101962.63
2023-03-29T01:41:47.870Z,101962.81
2023-03-29T01:44:59.628Z,101966.78
2023-03-29T01:48:10.647Z,101962.94
2023-03-29T01:51:19.632Z,101967.78
2023-03-29T01:54:29.194Z,101967.09
2023-03-29T01:57:35.875Z,101958.16
2023-03-29T02:00:43.903Z,101960.25
2023-03-29T02:03:50.900Z,101961.47
2023-03-29T02:06:57.128Z,101956.56
2023-03-29T02:10:03.326Z,101946.28
2023-03-29T02:13:08.445Z,101940.25
2023-03-29T02:16:15.772Z,101933.91
2023-03-29T02:19:21.873Z,101932.84
2023-03-29T02:22:29.773Z,101932.63
2023-03-29T02:25:34.858Z,101936.06
2023-03-29T02:28:40.098Z,101934.03
2023-03-29T02:31:50.489Z,101925.28
2023-03-29T02:34:59.786Z,101926.53
2023-03-29T02:38:07.382Z,101911.66
2023-03-29T02:41:13.290Z,101914.75
2023-03-29T02:44:21.599Z,101915.69
2023-03-29T02:47:32.576Z,101904.56
2023-03-29T02:50:40.373Z,101911.66
2023-03-29T02:53:50.238Z,101908.47
2023-03-29T02:56:59.448Z,101900.03
2023-03-29T03:00:09.862Z,101906.69
2023-03-29T03:03:16.930Z,101906.81
2023-03-29T03:06:25.819Z,101915.03
2023-03-29T03:09:31.227Z,101904.78
2023-03-29T03:12:37.407Z,101910.16
2023-03-29T03:15:43.596Z,101901.41
2023-03-29T03:18:51.288Z,101900.91
2023-03-29T03:21:57.207Z,101909.25
2023-03-29T03:25:02.382Z,101907.88
2023-03-29T03:28:07.688Z,101911.59
2023-03-29T03:31:14.081Z,101921.94
2023-03-29T03:34:46.844Z,101920.88
2023-03-29T03:37:52.064Z,101921.72
2023-03-29T03:40:57.629Z,101912.19
2023-03-29T03:44:03.393Z,101914.69
2023-03-29T03:47:09.634Z,101910.06
2023-03-29T03:50:17.748Z,101914.19
2023-03-29T03:53:23.857Z,101911.75
2023-03-29T03:56:48.270Z,101909.78
2023-03-29T04:00:10.128Z,101917.88
2023-03-29T04:03:18.761Z,101917.41
2023-03-29T04:06:25.537Z,101917.41
2023-03-29T04:09:59.584Z,101911.25
2023-03-29T04:13:17.598Z,101912.59
2023-03-29T04:16:41.573Z,101912.75
2023-03-29T04:20:11.671Z,101915.75
2023-03-29T04:23:19.754Z,101915.16
2023-03-29T04:26:24.969Z,101913.59
2023-03-29T04:29:36.707Z,101908.53
2023-03-29T04:32:54.250Z,101907.28
2023-03-29T04:35:59.812Z,101897.78
2023-03-29T04:39:07.941Z,101897.69
2023-03-29T04:42:14.639Z,101905.09
2023-03-29T04:45:19.871Z,101898.06
2023-03-29T04:48:40.618Z,101901.53
2023-03-29T04:51:46.470Z,101885.81
2023-03-29T04:54:55.427Z,101883.72
2023-03-29T04:58:22.108Z,101892.78
2023-03-29T05:01:29.069Z,101885.66
2023-03-29T05:04:36.678Z,101893.22
2023-03-29T05:07:49.119Z,101882.25
2023-03-29T05:10:59.354Z,101879.22
2023-03-29T05:14:07.460Z,101885.50
2023-03-29T05:17:15.031Z,101880.41
2023-03-29T05:20:21.228Z,101869.88
2023-03-29T05:23:26.954Z,101873.06
2023-03-29T05:26:53.659Z,101878.97
2023-03-29T05:29:58.861Z,101873.25
2023-03-29T05:33:14.665Z,101872.66
2023-03-29T05:36:20.383Z,101871.66
2023-03-29T05:39:29.118Z,101870.22
2023-03-29T05:42:36.073Z,101872.97
2023-03-29T05:45:45.943Z,101882.44
2023-03-29T05:48:51.817Z,101867.72
2023-03-29T05:51:58.458Z,101878.41
2023-03-29T05:55:05.414Z,101865.53
2023-03-29T05:58:14.190Z,101873.47
2023-03-29T06:01:20.093Z,101865.38
2023-03-29T06:04:33.729Z,101863.50
2023-03-29T06:07:54.459Z,101867.50
2023-03-29T06:11:37.965Z,101853.19
2023-03-29T06:14:48.267Z,101850.25
2023-03-29T06:18:13.812Z,101858.66
2023-03-29T06:21:19.026Z,101851.72
2023-03-29T06:24:25.106Z,101856.13
2023-03-29T06:27:37.360Z,101846.16
2023-03-29T06:30:43.843Z,101860.47
2023-03-29T06:33:49.532Z,101849.16
2023-03-29T06:37:16.158Z,101848.56
2023-03-29T06:40:23.062Z,101847.44
2023-03-29T06:43:28.357Z,101844.53
2023-03-29T06:46:45.618Z,101847.78
2023-03-29T06:49:53.502Z,101849.69
2023-03-29T06:53:07.520Z,101830.75
2023-03-29T06:56:14.759Z,101833.19
2023-03-29T06:59:21.580Z,101831.63
2023-03-29T07:02:35.926Z,101837.34
2023-03-29T07:05:51.940Z,101828.81
2023-03-29T07:08:59.867Z,101826.34
2023-03-29T07:12:24.496Z,101825.69
2023-03-29T07:15:34.238Z,101815.34
2023-03-29T07:19:01.536Z,101825.66
2023-03-29T07:22:27.261Z,101817.03
2023-03-29T07:25:39.535Z,101819.28
2023-03-29T07:28:45.547Z,101816.94
2023-03-29T07:31:50.740Z,101820.88
2023-03-29T07:35:18.596Z,101816.13
2023-03-29T07:38:25.357Z,101802.69
2023-03-29T07:41:37.204Z,101803.72
2023-03-29T07:44:50.659Z,101805.19
2023-03-29T07:47:57.246Z,101795.16
2023-03-29T07:51:05.182Z,101800.13
2023-03-29T07:54:27.446Z,101798.31
2023-03-29T07:57:48.132Z,101799.41
2023-03-29T08:00:53.745Z,101794.22
2023-03-29T08:04:19.442Z,101796.56
2023-03-29T08:07:47.456Z,101789.75
2023-03-29T08:10:52.571Z,101793.50
2023-03-29T08:14:10.337Z,101785.28
2023-03-29T08:17:37.801Z,101796.22
2023-03-29T08:20:43.996Z,101791.63
2023-03-29T08:23:51.254Z,101798.91
2023-03-29T08:27:00.156Z,101800.09
2023-03-29T08:30:06.991Z,101795.03
2023-03-29T08:33:14.451Z,101792.56
2023-03-29T08:36:22.006Z,101792.72
2023-03-29T08:39:29.959Z,101791.19
2023-03-29T08:43:18.328Z,101786.38
2023-03-29T08:47:00.200Z,101787.38
2023-03-29T08:50:12.379Z,101782.91
2023-03-29T08:53:24.375Z,101785.28
2023-03-29T08:56:43.433Z,101786.44
2023-03-29T09:00:07.239Z,101788.94
2023-03-29T09:03:22.330Z,101783.47
2023-03-29T09:06:28.671Z,101788.47
2023-03-29T09:09:44.019Z,101780.00
2023-03-29T09:13:07.748Z,101766.56
2023-03-29T09:16:20.002Z,101763.59
2023-03-29T09:19:31.710Z,101767.47
2023-03-29T09:22:42.475Z,101749.78
2023-03-29T09:25:54.448Z,101765.50
2023-03-29T09:29:13.772Z,101765.25
2023-03-29T09:32:22.566Z,101757.09
2023-03-29T09:35:39.296Z,101765.38
2023-03-29T09:38:47.913Z,101763.81
2023-03-29T09:41:55.194Z,101761.31
2023-03-29T09:45:08.644Z,101766.25
2023-03-29T09:48:23.010Z,101760.94
2023-03-29T09:51:35.284Z,101773.63
2023-03-29T09:54:40.543Z,101763.06
2023-03-29T09:58:02.867Z,101761.03
2023-03-29T10:01:17.520Z,101758.09
2023-03-29T10:04:24.139Z,101742.44
2023-03-29T10:07:44.856Z,101744.78
2023-03-29T10:10:51.801Z,101746.63
2023-03-29T10:14:00.475Z,101740.00
2023-03-29T10:17:12.600Z,101735.47
2023-03-29T10:20:19.903Z,101741.63
2023-03-29T10:23:25.077Z,101750.38
2023-03-29T10:26:33.185Z,101748.72
2023-03-29T10:29:39.697Z,101741.59
2023-03-29T10:32:47.195Z,101728.16
2023-03-29T10:35:52.779Z,101728.88
2023-03-29T10:39:00.632Z,101728.84
2023-03-29T10:42:08.500Z,101730.31
2023-03-29T10:45:23.370Z,101722.47
2023-03-29T10:48:32.977Z,101717.19
2023-03-29T10:51:38.387Z,101715.59
2023-03-29T10:54:43.481Z,101710.06
2023-03-29T10:57:57.135Z,101709.88
2023-03-29T11:01:02.510Z,101726.38
2023-03-29T11:04:23.906Z,101717.06
2023-03-29T11:07:32.414Z,101725.25
2023-03-29T11:10:46.900Z,101723.69
2023-03-29T11:13:59.866Z,101732.09
2023-03-29T11:17:17.700Z,101734.63
2023-03-29T11:20:30.438Z,101731.94
2023-03-29T11:23:46.045Z,101739.44
2023-03-29T11:27:00.534Z,101733.16
2023-03-29T11:30:10.409Z,101731.06
2023-03-29T11:33:28.043Z,101741.44
2023-03-29T11:36:39.823Z,101739.34
2023-03-29T11:39:50.974Z,101738.88
2023-03-29T11:42:58.317Z,101739.72
2023-03-29T11:46:09.974Z,101732.63
2023-03-29T11:49:20.140Z,101739.38
2023-03-29T11:52:30.895Z,101735.09
2023-03-29T11:55:38.334Z,101726.03
2023-03-29T11:58:48.527Z,101737.22
2023-03-29T12:01:54.219Z,101728.47
2023-03-29T12:04:59.489Z,101726.44
2023-03-29T12:08:06.604Z,101731.91
2023-03-29T12:11:13.041Z,101725.53
2023-03-29T12:14:20.987Z,101728.69
2023-03-29T12:17:30.233Z,101723.06
2023-03-29T12:20:37.975Z,101723.44
2023-03-29T12:23:45.332Z,101718.22
2023-03-29T12:26:54.355Z,101727.25
2023-03-29T12:30:19.914Z,101721.69
2023-03-29T12:33:31.728Z,101728.03
2023-03-29T12:37:13.423Z,101723.66
2023-03-29T12:40:27.616Z,101729.78
2023-03-29T12:43:39.111Z,101717.22
2023-03-29T12:47:04.393Z,101716.47
2023-03-29T12:50:16.652Z,101717.09
2023-03-29T12:53:23.369Z,101713.06
2023-03-29T12:56:40.226Z,101697.06
2023-03-29T12:59:46.228Z,101707.09
2023-03-29T13:03:00.390Z,101697.34
2023-03-29T13:06:06.006Z,101711.91
2023-03-29T13:09:21.609Z,101716.03
2023-03-29T13:12:29.256Z,101701.22
2023-03-29T13:15:35.828Z,101698.72
2023-03-29T13:18:43.530Z,101709.19
2023-03-29T13:21:51.509Z,101694.22
2023-03-29T13:25:02.196Z,101698.31
2023-03-29T13:28:10.455Z,101697.88
2023-03-29T13:31:18.674Z,101694.72
2023-03-29T13:34:27.534Z,101695.28
2023-03-29T13:37:35.468Z,101687.16
2023-03-29T13:40:44.535Z,101682.69
2023-03-29T13:43:52.878Z,101685.81
2023-03-29T13:47:05.568Z,101668.84
2023-03-29T13:50:18.141Z,101684.03
2023-03-29T13:53:26.132Z,101687.66
2023-03-29T13:56:32.886Z,101688.19
2023-03-29T13:59:41.476Z,101667.34
2023-03-29T14:02:49.385Z,101657.94
2023-03-29T14:05:56.120Z,101664.28
2023-03-29T14:09:00.830Z,101663.47
2023-03-29T14:12:06.084Z,101665.28
2023-03-29T14:15:20.334Z,101651.25
2023-03-29T14:18:25.714Z,101655.16
2023-03-29T14:21:30.656Z,101655.09
2023-03-29T14:24:36.452Z,101647.41
2023-03-29T14:27:42.181Z,101651.69
2023-03-29T14:30:49.928Z,101644.09
2023-03-29T14:33:54.772Z,101639.31
2023-03-29T14:36:59.937Z,101622.22
2023-03-29T14:40:08.910Z,101630.31
2023-03-29T14:43:15.937Z,101628.69
2023-03-29T14:46:22.126Z,101625.34
2023-03-29T14:49:27.033Z,101626.66
2023-03-29T14:52:32.146Z,101621.13
2023-03-29T14:55:38.084Z,101613.44
2023-03-29T14:58:46.713Z,101621.91
2023-03-29T15:01:53.114Z,101617.53
2023-03-29T15:04:59.167Z,101621.69
2023-03-29T15:08:04.287Z,101608.22
2023-03-29T15:11:13.026Z,101607.47
2023-03-29T15:14:18.050Z,101617.97
2023-03-29T15:17:42.588Z,101607.41
2023-03-29T15:20:54.794Z,101617.69
2023-03-29T15:23:59.988Z,101619.97
2023-03-29T15:27:05.809Z,101608.22
2023-03-29T15:30:12.830Z,101601.13
2023-03-29T15:33:23.030Z,101602.66
2023-03-29T15:36:28.245Z,101603.25
2023-03-29T15:39:35.028Z,101602.50
2023-03-29T15:42:40.349Z,101599.75
2023-03-29T15:45:47.350Z,101595.38
2023-03-29T15:48:54.519Z,101595.22
2023-03-29T15:51:59.751Z,101591.94
2023-03-29T15:55:04.985Z,101600.44
2023-03-29T15:58:11.773Z,101591.78
2023-03-29T16:01:34.829Z,101608.78
2023-03-29T16:04:41.431Z,101584.97
2023-03-29T16:07:46.553Z,101596.28
2023-03-29T16:10:51.646Z,101592.03
2023-03-29T16:13:57.588Z,101594.69
2023-03-29T16:17:03.361Z,101590.34
2023-03-29T16:20:14.987Z,101585.91
2023-03-29T16:23:20.043Z,101580.22
2023-03-29T16:26:26.266Z,101586.00
2023-03-29T16:29:32.013Z,101585.66
2023-03-29T16:32:37.245Z,101582.59
2023-03-29T16:35:43.733Z,101572.88
2023-03-29T16:38:49.065Z,101570.63
2023-03-29T16:41:54.249Z,101574.53
2023-03-29T16:44:59.556Z,101560.53
2023-03-29T16:48:05.148Z,101560.00
2023-03-29T16:51:11.910Z,101566.22
2023-03-29T16:54:17.793Z,101566.41
2023-03-29T16:57:23.288Z,101564.16
2023-03-29T17:00:29.173Z,101576.44
2023-03-29T17:03:34.233Z,101566.31
2023-03-29T17:06:40.966Z,101569.91
2023-03-29T17:09:46.876Z,101572.78
2023-03-29T17:12:52.206Z,101568.91
2023-03-29T17:15:58.681Z,101564.78
2023-03-29T17:19:03.936Z,101555.81
2023-03-29T17:22:10.552Z,101569.88
2023-03-29T17:25:15.614Z,101579.19
2023-03-29T17:28:20.762Z,101574.44
2023-03-29T17:31:26.243Z,101572.22
2023-03-29T17:34:33.048Z,101570.91
2023-03-29T17:37:39.845Z,101581.75
2023-03-29T17:40:44.936Z,101579.63
2023-03-29T17:43:51.048Z,101576.69
2023-03-29T17:46:56.608Z,101585.31
2023-03-29T17:50:01.810Z,101580.59
2023-03-29T17:53:08.129Z,101582.25
2023-03-29T17:56:14.383Z,101587.91
2023-03-29T17:59:19.838Z,101585.81
2023-03-29T18:02:25.820Z,101589.97
2023-03-29T18:05:30.996Z,101594.53
2023-03-29T18:08:37.631Z,101589.81
2023-03-29T18:11:43.621Z,101582.78
2023-03-29T18:14:48.676Z,101587.22
2023-03-29T18:17:53.780Z,101576.44
2023-03-29T18:20:59.109Z,101586.41
2023-03-29T18:24:05.937Z,101579.69
2023-03-29T18:27:12.298Z,101585.34
2023-03-29T18:30:17.781Z,101592.31
2023-03-29T18:33:23.009Z,101585.66
2023-03-29T18:36:29.508Z,101583.16
2023-03-29T18:39:35.944Z,101581.25
2023-03-29T18:42:41.054Z,101576.78
2023-03-29T18:45:47.605Z,101582.69
2023-03-29T18:48:53.635Z,101584.47
2023-03-29T18:51:58.673Z,101583.63
2023-03-29T18:55:05.378Z,101587.41
2023-03-29T18:58:11.202Z,101579.78
2023-03-29T19:01:16.745Z,101589.19
2023-03-29T19:04:23.436Z,101579.69
2023-03-29T19:07:29.522Z,101575.97
2023-03-29T19:10:38.556Z,101580.25
2023-03-29T19:13:46.406Z,101586.72
2023-03-29T19:16:52.017Z,101586.47
2023-03-29T19:19:57.565Z,101583.31
2023-03-29T19:23:03.636Z,101581.03
2023-03-29T19:26:10.787Z,101579.44
2023-03-29T19:29:16.147Z,101587.03
2023-03-29T19:32:21.305Z,101583.09
2023-03-29T19:35:26.575Z,101578.19
2023-03-29T19:38:31.963Z,101584.31
2023-03-29T19:41:40.653Z,101581.66
2023-03-29T19:44:46.851Z,101580.91
2023-03-29T19:47:55.681Z,101580.41
2023-03-29T19:51:03.575Z,101584.25
2023-03-29T19:54:08.723Z,101578.28
2023-03-29T19:57:15.363Z,101592.19
2023-03-29T20:00:24.542Z,101581.44
2023-03-29T20:03:30.036Z,101581.97
2023-03-29T20:06:35.442Z,101587.13
2023-03-29T20:09:44.544Z,101586.47
2023-03-29T20:12:51.799Z,101582.19
2023-03-29T20:15:57.132Z,101579.38
2023-03-29T20:19:02.795Z,101573.13
2023-03-29T20:22:08.060Z,101574.38
2023-03-29T20:25:14.011Z,101577.72
2023-03-29T20:28:20.770Z,101573.03
2023-03-29T20:31:26.241Z,101571.69
2023-03-29T20:34:31.616Z,101573.97
2023-03-29T20:37:36.765Z,101577.84
2023-03-29T20:40:42.945Z,101575.94
2023-03-29T20:43:58.193Z,101572.91
2023-03-29T20:47:08.126Z,101582.69
2023-03-29T20:50:13.345Z,101582.19
2023-03-29T20:53:20.801Z,101578.63
2023-03-29T20:56:26.316Z,101572.56
2023-03-29T20:59:32.880Z,101566.38
2023-03-29T21:02:38.361Z,101580.34
2023-03-29T21:05:44.747Z,101575.38
2023-03-29T21:08:50.498Z,101586.22
2023-03-29T21:11:55.832Z,101572.72
2023-03-29T21:15:02.541Z,101572.19
2023-03-29T21:18:07.890Z,101561.22
2023-03-29T21:21:15.617Z,101557.66
2023-03-29T21:24:21.179Z,101570.22
2023-03-29T21:27:26.409Z,101573.41
2023-03-29T21:30:32.939Z,101576.81
2023-03-29T21:33:38.030Z,101569.38
2023-03-29T21:36:44.191Z,101571.50
2023-03-29T21:39:49.350Z,101569.69
2023-03-29T21:42:54.440Z,101571.13
2023-03-29T21:46:01.018Z,101583.50
2023-03-29T21:49:06.244Z,101580.50
2023-03-29T21:52:12.561Z,101582.00
2023-03-29T21:55:18.488Z,101577.75
2023-03-29T21:58:23.570Z,101575.34
2023-03-29T22:01:30.104Z,101573.78
2023-03-29T22:04:36.937Z,101574.41
2023-03-29T22:07:42.831Z,101568.75
2023-03-29T22:10:55.391Z,101561.53
2023-03-29T22:14:00.584Z,101565.75
2023-03-29T22:17:07.871Z,101562.75
2023-03-29T22:20:15.492Z,101552.78
2023-03-29T22:23:20.577Z,101545.03
2023-03-29T22:26:28.331Z,101554.75
2023-03-29T22:29:33.574Z,101558.66
2023-03-29T22:32:40.135Z,101556.81
2023-03-29T22:35:45.253Z,101561.59
2023-03-29T22:38:51.745Z,101561.38
2023-03-29T22:41:56.893Z,101563.88
2023-03-29T22:45:01.951Z,101571.81
2023-03-29T22:48:08.605Z,101568.22
2023-03-29T22:51:13.830Z,101580.78
2023-03-29T22:54:19.021Z,101572.41
2023-03-29T22:57:24.091Z,101558.34
2023-03-29T23:00:29.263Z,101572.16
2023-03-29T23:03:36.336Z,101576.88
2023-03-29T23:06:41.643Z,101571.81
2023-03-29T23:09:47.056Z,101577.03
2023-03-29T23:12:52.343Z,101580.22
2023-03-29T23:15:59.258Z,101563.94
2023-03-29T23:19:06.818Z,101573.66
2023-03-29T23:22:14.318Z,101562.97
2023-03-29T23:25:19.366Z,101570.41
2023-03-29T23:28:27.439Z,101568.94
2023-03-29T23:31:33.837Z,101578.34
2023-03-29T23:34:40.619Z,101578.50
2023-03-29T23:37:46.176Z,101574.19
2023-03-29T23:40:58.808Z,101584.31
2023-03-29T23:44:04.453Z,101573.69
2023-03-29T23:47:09.968Z,101569.78
2023-03-29T23:50:16.893Z,101566.72
2023-03-29T23:53:22.241Z,101568.97
2023-03-29T23:56:27.584Z,101556.09
2023-03-29T23:59:38.048Z,101559.97
